Filia Ariea — PIET — position and weather

sailwx.info

Track history (hours):
 
Tides and Currents Weather Stations Pressure Air Temp Water Temp Dewpoint Dewpoint Depression Visibility Wind Speed Wind Dir Waves Ship Positions

Filia Ariea

Last reported at 2015-May-22 12:33 UTC. Time now 2015-May-23 10:25 UTC.
Position N 54°38' E 010°59'.

Length 90 m; draft 3.3 m.

Type: Cargo ship. MMSI: 244662000.

Date/timePositionNaut miles runAvg speedWind from/ knotsBaromVisibWave heightAir tempDewpointWater temp
2015-May-22 12:33N 54°38' E 010°59'1212.4
2015-May-22 11:33N 54°34' E 011°19'1212.1
2015-May-22 10:33N 54°30' E 011°38'1211.9
2015-May-22 09:33N 54°27' E 011°58'2510.9
2015-May-22 07:13N 54°34' E 012°40'6611.5
2015-May-22 01:29N 54°43' E 014°33'1111.3
2015-May-22 00:31N 54°45' E 014°52'1111.4
2015-May-21 23:33N 54°46' E 015°11'1111.3
2015-May-21 22:33N 54°47' E 015°30'1311.3
2015-May-21 21:27N 54°48' E 015°52'1411.5
2015-May-21 20:15N 54°50' E 016°16'1211.7
2015-May-21 19:16N 54°51' E 016°36'1011.8
2015-May-21 18:23N 54°52' E 016°54'2211.7
2015-May-21 16:29N 54°54' E 017°32'1111.4
2015-May-21 15:33N 54°53' E 017°51'1111.2
2015-May-21 14:33N 54°52' E 018°10'1110.9
2015-May-21 13:33N 54°49' E 018°28'1211.8
2015-May-21 12:33N 54°43' E 018°46'9 8.8
2015-May-21 11:33N 54°36' E 018°54'1010.3
2015-May-21 10:33N 54°32' E 018°38'4 4.3
2015-May-21 09:32N 54°33' E 018°31'0 0.0
2015-May-21 08:32N 54°33' E 018°31'0 0.0
2015-May-21 07:31N 54°33' E 018°31'0 0.0
2015-May-21 06:31N 54°33' E 018°31'0 0.0
2015-May-21 05:33N 54°33' E 018°31'0 0.0
2015-May-21 04:33N 54°33' E 018°31'4 3.3
2015-May-21 03:31N 54°31' E 018°36'0 0.0
2015-May-21 02:33N 54°31' E 018°36'0 0.0
2015-May-21 01:33N 54°31' E 018°36'0 0.0
2015-May-21 00:32N 54°31' E 018°36'0 0.0
2015-May-20 23:32N 54°31' E 018°36'0 0.0
2015-May-20 22:32N 54°31' E 018°36'0 0.0
2015-May-20 21:31N 54°31' E 018°36'0 0.0
2015-May-20 20:31N 54°31' E 018°36'0 0.0
2015-May-20 19:33N 54°31' E 018°36'0 0.0
2015-May-20 18:33N 54°31' E 018°36'0 0.0
2015-May-20 17:32N 54°31' E 018°36'0 0.0
2015-May-20 16:32N 54°31' E 018°36'0 0.0
2015-May-20 15:32N 54°31' E 018°36'0 0.0
2015-May-20 14:31N 54°31' E 018°36'0 0.0
2015-May-20 13:31N 54°31' E 018°36'0 0.0
2015-May-20 12:33N 54°31' E 018°36'0 0.0
2015-May-20 11:33N 54°31' E 018°36'0 0.0
2015-May-20 10:32N 54°31' E 018°36'0 0.0
2015-May-20 09:32N 54°31' E 018°36'0 0.0
2015-May-20 08:32N 54°31' E 018°36'0 0.0
2015-May-20 07:31N 54°31' E 018°36'0 0.0
2015-May-20 06:31N 54°31' E 018°36'0 0.0
2015-May-20 05:30N 54°31' E 018°36'0 0.0
2015-May-20 04:33N 54°31' E 018°36'0 0.1
2015-May-20 03:32N 54°31' E 018°36'0 0.0
2015-May-20 02:32N 54°31' E 018°36'0 0.0
2015-May-20 01:32N 54°31' E 018°36'0 0.0
2015-May-20 00:31N 54°31' E 018°36'0 0.0
2015-May-19 23:31N 54°31' E 018°36'0 0.0
2015-May-19 22:33N 54°31' E 018°36'0 0.0
2015-May-19 21:33N 54°31' E 018°36'0 0.1
2015-May-19 20:32N 54°31' E 018°36'0 0.0
2015-May-19 19:32N 54°31' E 018°36'0 0.0
2015-May-19 18:31N 54°31' E 018°36'0 0.0
2015-May-19 17:31N 54°31' E 018°36'0 0.0
2015-May-19 16:28N 54°31' E 018°36'0 0.0
2015-May-19 15:33N 54°31' E 018°36'0 0.0
2015-May-19 14:33N 54°31' E 018°36'0 0.0
2015-May-19 13:32N 54°31' E 018°36'0 0.0
2015-May-19 12:32N 54°31' E 018°36'0 0.1
2015-May-19 11:32N 54°31' E 018°36'0 0.1
2015-May-19 10:31N 54°31' E 018°36'0 0.0
2015-May-19 09:31N 54°31' E 018°36'0 0.0
2015-May-19 08:33N 54°31' E 018°36'0 0.0
2015-May-19 07:33N 54°31' E 018°36'0 0.0
2015-May-19 06:32N 54°31' E 018°36'0 0.0
2015-May-19 05:32N 54°31' E 018°36'0 0.0
2015-May-19 04:32N 54°31' E 018°36'2 2.4
2015-May-19 03:33N 54°32' E 018°40'10 9.8
2015-May-19 02:33N 54°38' E 018°54'1010.2
2015-May-19 01:33N 54°45' E 019°05'1110.6
2015-May-19 00:33N 54°52' E 019°20'1110.6
2015-May-18 23:33N 54°59' E 019°34'1010.2
2015-May-18 22:33N 55°05' E 019°47'1010.2
2015-May-18 21:33N 55°12' E 020°01'  
2015-May-16 13:04N 55°31' E 019°25'1011.5
2015-May-16 12:14N 55°29' E 019°09'4111.3
2015-May-16 08:33N 55°19' E 017°58'1211.0
2015-May-16 07:26N 55°16' E 017°37'1111.1
2015-May-16 06:25N 55°13' E 017°18'1111.5
2015-May-16 05:27N 55°11' E 016°58'1111.3
2015-May-16 04:28N 55°09' E 016°40'1111.3
2015-May-16 03:31N 55°07' E 016°21'1111.3
2015-May-16 02:33N 55°04' E 016°03'1111.1
2015-May-16 01:33N 55°01' E 015°44'1111.1
2015-May-16 00:33N 54°58' E 015°26'1111.3
2015-May-15 23:33N 54°56' E 015°06'1111.3
2015-May-15 22:33N 54°53' E 014°47'1111.3
2015-May-15 21:33N 54°51' E 014°28'1111.3
2015-May-15 20:33N 54°48' E 014°09'1111.6
2015-May-15 19:33N 54°46' E 013°49'2711.6
2015-May-15 17:14N 54°39' E 013°04'811.4
2015-May-15 16:33N 54°37' E 012°51'1111.3
2015-May-15 15:33N 54°33' E 012°33'1111.0
2015-May-15 14:33N 54°29' E 012°15'1111.2
2015-May-15 13:33N 54°19' E 012°07'9 9.4
2015-May-15 12:33N 54°10' E 012°06'0 0.4
2015-May-15 11:30N 54°09' E 012°06'0 0.0
2015-May-15 10:33N 54°09' E 012°06'0 0.0
2015-May-15 09:33N 54°09' E 012°06'0 0.0
2015-May-15 08:29N 54°09' E 012°06'0 0.0
2015-May-15 07:33N 54°09' E 012°06'0 0.0
2015-May-15 06:33N 54°09' E 012°06'0 0.0
2015-May-15 05:33N 54°09' E 012°06'0 0.0
2015-May-15 04:33N 54°09' E 012°06'0 0.0
2015-May-15 03:33N 54°09' E 012°06'0 0.0
2015-May-15 02:33N 54°09' E 012°06'0 0.0
2015-May-15 01:33N 54°09' E 012°06'0 0.0
2015-May-15 00:33N 54°09' E 012°06'0 0.0
2015-May-14 23:33N 54°09' E 012°06'0 0.0
2015-May-14 22:33N 54°09' E 012°06'0 0.0
2015-May-14 21:32N 54°09' E 012°06'0 0.0
2015-May-14 20:33N 54°09' E 012°06'0 0.0
2015-May-14 19:30N 54°09' E 012°06'0 0.0
2015-May-14 18:33N 54°09' E 012°06'0 0.0
2015-May-14 17:33N 54°09' E 012°06'0 0.0
2015-May-14 16:29N 54°09' E 012°06'0 0.0
2015-May-14 15:30N 54°09' E 012°06'0 0.0
2015-May-14 14:30N 54°09' E 012°06'0 0.0
2015-May-14 13:33N 54°09' E 012°06'0 0.0
2015-May-14 11:33N 54°09' E 012°06'0 0.0
2015-May-14 10:34N 54°09' E 012°06'0 0.3
2015-May-14 09:25N 54°09' E 012°06'7 8.4
2015-May-14 08:34N 54°15' E 011°59'1111.0
2015-May-14 07:33N 54°22' E 011°43'1111.0
2015-May-14 06:33N 54°28' E 011°28'1110.8
2015-May-14 05:33N 54°33' E 011°11'1110.8
2015-May-14 04:33N 54°33' E 010°53'1111.0
2015-May-14 03:34N 54°32' E 010°34'1110.9
2015-May-14 02:33N 54°28' E 010°16'8 7.7
2015-May-14 01:33N 54°22' E 010°08'6 5.6
2015-May-14 00:33N 54°21' E 009°59'7 7.4
2015-May-13 23:33N 54°21' E 009°46'5 5.0
2015-May-13 22:33N 54°18' E 009°41'8 7.9
2015-May-13 21:33N 54°12' E 009°32'8 8.5
2015-May-13 20:33N 54°07' E 009°20'9 8.7
2015-May-13 19:33N 53°59' E 009°16'7 6.7
2015-May-13 18:33N 53°54' E 009°09'2 1.6
2015-May-13 17:33N 53°53' E 009°12'9 9.0
2015-May-13 16:33N 53°47' E 009°23'1212.0
2015-May-13 15:33N 53°37' E 009°33'1212.2
2015-May-13 14:33N 53°33' E 009°53'5 5.2
2015-May-13 13:33N 53°29' E 009°58'0 0.2
2015-May-13 12:17N 53°28' E 009°58'0 0.0
2015-May-13 11:32N 53°28' E 009°58'0 0.0
2015-May-13 09:33N 53°28' E 009°58'0 0.0
2015-May-13 08:27N 53°28' E 009°58'0 0.0
2015-May-13 07:19N 53°28' E 009°58'0 0.0
2015-May-13 04:15N 53°28' E 009°58'2 2.2
2015-May-13 03:33N 53°30' E 009°57'6 5.9
2015-May-13 02:34N 53°33' E 009°49'10 9.6
2015-May-13 01:33N 53°37' E 009°34'9 9.4
2015-May-13 00:33N 53°45' E 009°25'9 8.6
2015-May-12 23:33N 53°52' E 009°17'8 7.8
2015-May-12 22:33N 53°52' E 009°04'9 9.1
2015-May-12 21:33N 53°50' E 008°49'9 9.1
2015-May-12 20:33N 53°57' E 008°38'10 9.9
2015-May-12 19:33N 53°59' E 008°21'10 9.8
2015-May-12 18:33N 53°60' E 008°05'7 7.5
2015-May-12 17:33N 54°07' E 008°02'7 7.2
2015-May-12 16:33N 54°14' E 008°01'8 8.3
2015-May-12 15:33N 54°22' E 007°57'9 8.6
2015-May-12 14:33N 54°31' E 007°53'9 8.8
2015-May-12 13:33N 54°39' E 007°49'10 9.6
2015-May-12 12:33N 54°48' E 007°44'  
Track history (hours):
 
Tides and Currents Weather Stations Pressure Air Temp Water Temp Dewpoint Dewpoint Depression Visibility Wind Speed Wind Dir Waves Ship Positions

Filia Ariea

Last reported at 2015-May-22 12:33 UTC. Time now 2015-May-23 10:25 UTC.
Position N 54°38' E 010°59'.

Length 90 m; draft 3.3 m.

Type: Cargo ship. MMSI: 244662000.

Date/timePositionNaut miles runAvg speedWind from/ knotsBaromVisibWave heightAir tempDewpointWater temp
2015-May-22 12:33N 54°38' E 010°59'1212.4
2015-May-22 11:33N 54°34' E 011°19'1212.1
2015-May-22 10:33N 54°30' E 011°38'1211.9
2015-May-22 09:33N 54°27' E 011°58'2510.9
2015-May-22 07:13N 54°34' E 012°40'6611.5
2015-May-22 01:29N 54°43' E 014°33'1111.3
2015-May-22 00:31N 54°45' E 014°52'1111.4
2015-May-21 23:33N 54°46' E 015°11'1111.3
2015-May-21 22:33N 54°47' E 015°30'1311.3
2015-May-21 21:27N 54°48' E 015°52'1411.5
2015-May-21 20:15N 54°50' E 016°16'1211.7
2015-May-21 19:16N 54°51' E 016°36'1011.8
2015-May-21 18:23N 54°52' E 016°54'2211.7
2015-May-21 16:29N 54°54' E 017°32'1111.4
2015-May-21 15:33N 54°53' E 017°51'1111.2
2015-May-21 14:33N 54°52' E 018°10'1110.9
2015-May-21 13:33N 54°49' E 018°28'1211.8
2015-May-21 12:33N 54°43' E 018°46'9 8.8
2015-May-21 11:33N 54°36' E 018°54'1010.3
2015-May-21 10:33N 54°32' E 018°38'4 4.3
2015-May-21 09:32N 54°33' E 018°31'0 0.0
2015-May-21 08:32N 54°33' E 018°31'0 0.0
2015-May-21 07:31N 54°33' E 018°31'0 0.0
2015-May-21 06:31N 54°33' E 018°31'0 0.0
2015-May-21 05:33N 54°33' E 018°31'0 0.0
2015-May-21 04:33N 54°33' E 018°31'4 3.3
2015-May-21 03:31N 54°31' E 018°36'0 0.0
2015-May-21 02:33N 54°31' E 018°36'0 0.0
2015-May-21 01:33N 54°31' E 018°36'0 0.0
2015-May-21 00:32N 54°31' E 018°36'0 0.0
2015-May-20 23:32N 54°31' E 018°36'0 0.0
2015-May-20 22:32N 54°31' E 018°36'0 0.0
2015-May-20 21:31N 54°31' E 018°36'0 0.0
2015-May-20 20:31N 54°31' E 018°36'0 0.0
2015-May-20 19:33N 54°31' E 018°36'0 0.0
2015-May-20 18:33N 54°31' E 018°36'0 0.0
2015-May-20 17:32N 54°31' E 018°36'0 0.0
2015-May-20 16:32N 54°31' E 018°36'0 0.0
2015-May-20 15:32N 54°31' E 018°36'0 0.0
2015-May-20 14:31N 54°31' E 018°36'0 0.0
2015-May-20 13:31N 54°31' E 018°36'0 0.0
2015-May-20 12:33N 54°31' E 018°36'0 0.0
2015-May-20 11:33N 54°31' E 018°36'0 0.0
2015-May-20 10:32N 54°31' E 018°36'0 0.0
2015-May-20 09:32N 54°31' E 018°36'0 0.0
2015-May-20 08:32N 54°31' E 018°36'0 0.0
2015-May-20 07:31N 54°31' E 018°36'0 0.0
2015-May-20 06:31N 54°31' E 018°36'0 0.0
2015-May-20 05:30N 54°31' E 018°36'0 0.0
2015-May-20 04:33N 54°31' E 018°36'0 0.1
2015-May-20 03:32N 54°31' E 018°36'0 0.0
2015-May-20 02:32N 54°31' E 018°36'0 0.0
2015-May-20 01:32N 54°31' E 018°36'0 0.0
2015-May-20 00:31N 54°31' E 018°36'0 0.0
2015-May-19 23:31N 54°31' E 018°36'0 0.0
2015-May-19 22:33N 54°31' E 018°36'0 0.0
2015-May-19 21:33N 54°31' E 018°36'0 0.1
2015-May-19 20:32N 54°31' E 018°36'0 0.0
2015-May-19 19:32N 54°31' E 018°36'0 0.0
2015-May-19 18:31N 54°31' E 018°36'0 0.0
2015-May-19 17:31N 54°31' E 018°36'0 0.0
2015-May-19 16:28N 54°31' E 018°36'0 0.0
2015-May-19 15:33N 54°31' E 018°36'0 0.0
2015-May-19 14:33N 54°31' E 018°36'0 0.0
2015-May-19 13:32N 54°31' E 018°36'0 0.0
2015-May-19 12:32N 54°31' E 018°36'0 0.1
2015-May-19 11:32N 54°31' E 018°36'0 0.1
2015-May-19 10:31N 54°31' E 018°36'0 0.0
2015-May-19 09:31N 54°31' E 018°36'0 0.0
2015-May-19 08:33N 54°31' E 018°36'0 0.0
2015-May-19 07:33N 54°31' E 018°36'0 0.0
2015-May-19 06:32N 54°31' E 018°36'0 0.0
2015-May-19 05:32N 54°31' E 018°36'0 0.0
2015-May-19 04:32N 54°31' E 018°36'2 2.4
2015-May-19 03:33N 54°32' E 018°40'10 9.8
2015-May-19 02:33N 54°38' E 018°54'1010.2
2015-May-19 01:33N 54°45' E 019°05'1110.6
2015-May-19 00:33N 54°52' E 019°20'1110.6
2015-May-18 23:33N 54°59' E 019°34'1010.2
2015-May-18 22:33N 55°05' E 019°47'1010.2
2015-May-18 21:33N 55°12' E 020°01'  
2015-May-16 13:04N 55°31' E 019°25'1011.5
2015-May-16 12:14N 55°29' E 019°09'4111.3
2015-May-16 08:33N 55°19' E 017°58'1211.0
2015-May-16 07:26N 55°16' E 017°37'1111.1
2015-May-16 06:25N 55°13' E 017°18'1111.5
2015-May-16 05:27N 55°11' E 016°58'1111.3
2015-May-16 04:28N 55°09' E 016°40'1111.3
2015-May-16 03:31N 55°07' E 016°21'1111.3
2015-May-16 02:33N 55°04' E 016°03'1111.1
2015-May-16 01:33N 55°01' E 015°44'1111.1
2015-May-16 00:33N 54°58' E 015°26'1111.3
2015-May-15 23:33N 54°56' E 015°06'1111.3
2015-May-15 22:33N 54°53' E 014°47'1111.3
2015-May-15 21:33N 54°51' E 014°28'1111.3
2015-May-15 20:33N 54°48' E 014°09'1111.6
2015-May-15 19:33N 54°46' E 013°49'2711.6
2015-May-15 17:14N 54°39' E 013°04'811.4
2015-May-15 16:33N 54°37' E 012°51'1111.3
2015-May-15 15:33N 54°33' E 012°33'1111.0
2015-May-15 14:33N 54°29' E 012°15'1111.2
2015-May-15 13:33N 54°19' E 012°07'9 9.4
2015-May-15 12:33N 54°10' E 012°06'0 0.4
2015-May-15 11:30N 54°09' E 012°06'0 0.0
2015-May-15 10:33N 54°09' E 012°06'0 0.0
2015-May-15 09:33N 54°09' E 012°06'0 0.0
2015-May-15 08:29N 54°09' E 012°06'0 0.0
2015-May-15 07:33N 54°09' E 012°06'0 0.0
2015-May-15 06:33N 54°09' E 012°06'0 0.0
2015-May-15 05:33N 54°09' E 012°06'0 0.0
2015-May-15 04:33N 54°09' E 012°06'0 0.0
2015-May-15 03:33N 54°09' E 012°06'0 0.0
2015-May-15 02:33N 54°09' E 012°06'0 0.0
2015-May-15 01:33N 54°09' E 012°06'0 0.0
2015-May-15 00:33N 54°09' E 012°06'0 0.0
2015-May-14 23:33N 54°09' E 012°06'0 0.0
2015-May-14 22:33N 54°09' E 012°06'0 0.0
2015-May-14 21:32N 54°09' E 012°06'0 0.0
2015-May-14 20:33N 54°09' E 012°06'0 0.0
2015-May-14 19:30N 54°09' E 012°06'0 0.0
2015-May-14 18:33N 54°09' E 012°06'0 0.0
2015-May-14 17:33N 54°09' E 012°06'0 0.0
2015-May-14 16:29N 54°09' E 012°06'0 0.0
2015-May-14 15:30N 54°09' E 012°06'0 0.0
2015-May-14 14:30N 54°09' E 012°06'0 0.0
2015-May-14 13:33N 54°09' E 012°06'0 0.0
2015-May-14 11:33N 54°09' E 012°06'0 0.0
2015-May-14 10:34N 54°09' E 012°06'0 0.3
2015-May-14 09:25N 54°09' E 012°06'7 8.4
2015-May-14 08:34N 54°15' E 011°59'1111.0
2015-May-14 07:33N 54°22' E 011°43'1111.0
2015-May-14 06:33N 54°28' E 011°28'1110.8
2015-May-14 05:33N 54°33' E 011°11'1110.8
2015-May-14 04:33N 54°33' E 010°53'1111.0
2015-May-14 03:34N 54°32' E 010°34'1110.9
2015-May-14 02:33N 54°28' E 010°16'8 7.7
2015-May-14 01:33N 54°22' E 010°08'6 5.6
2015-May-14 00:33N 54°21' E 009°59'7 7.4
2015-May-13 23:33N 54°21' E 009°46'5 5.0
2015-May-13 22:33N 54°18' E 009°41'8 7.9
2015-May-13 21:33N 54°12' E 009°32'8 8.5
2015-May-13 20:33N 54°07' E 009°20'9 8.7
2015-May-13 19:33N 53°59' E 009°16'7 6.7
2015-May-13 18:33N 53°54' E 009°09'2 1.6
2015-May-13 17:33N 53°53' E 009°12'9 9.0
2015-May-13 16:33N 53°47' E 009°23'1212.0
2015-May-13 15:33N 53°37' E 009°33'1212.2
2015-May-13 14:33N 53°33' E 009°53'5 5.2
2015-May-13 13:33N 53°29' E 009°58'0 0.2
2015-May-13 12:17N 53°28' E 009°58'0 0.0
2015-May-13 11:32N 53°28' E 009°58'0 0.0
2015-May-13 09:33N 53°28' E 009°58'0 0.0
2015-May-13 08:27N 53°28' E 009°58'0 0.0
2015-May-13 07:19N 53°28' E 009°58'0 0.0
2015-May-13 04:15N 53°28' E 009°58'2 2.2
2015-May-13 03:33N 53°30' E 009°57'6 5.9
2015-May-13 02:34N 53°33' E 009°49'10 9.6
2015-May-13 01:33N 53°37' E 009°34'9 9.4
2015-May-13 00:33N 53°45' E 009°25'9 8.6
2015-May-12 23:33N 53°52' E 009°17'8 7.8
2015-May-12 22:33N 53°52' E 009°04'9 9.1
2015-May-12 21:33N 53°50' E 008°49'9 9.1
2015-May-12 20:33N 53°57' E 008°38'10 9.9
2015-May-12 19:33N 53°59' E 008°21'10 9.8
2015-May-12 18:33N 53°60' E 008°05'7 7.5
2015-May-12 17:33N 54°07' E 008°02'7 7.2
2015-May-12 16:33N 54°14' E 008°01'8 8.3
2015-May-12 15:33N 54°22' E 007°57'9 8.6
2015-May-12 14:33N 54°31' E 007°53'9 8.8
2015-May-12 13:33N 54°39' E 007°49'10 9.6
2015-May-12 12:33N 54°48' E 007°44'  

Dump ship's entire track history